Time;durP1;ratioP1;P1;durP2;ratioP2;P2;SDS_P1;SDS_P2;PMS_P1;PMS_P2;Temp;Humidity;BMP_temperature;BMP_pressure;BME280_temperature;BME280_humidity;BME280_pressure;Samples;Min_cycle;Max_cycle;Signal;HPM_P1;HPM_P2
2021/01/02 00:00:51;;;;;;;17.23;13.32;;;4.10;95.00;;;;;;5077852;28;20475;-55
2021/01/02 00:03:49;;;;;;;14.48;12.73;;;4.10;95.00;;;;;;5077241;28;20058;-55
2021/01/02 00:06:31;;;;;;;16.83;13.07;;;4.10;95.10;;;;;;5075333;28;20186;-55
2021/01/02 00:09:10;;;;;;;15.93;12.75;;;4.10;95.10;;;;;;5076008;28;20440;-55
2021/01/02 00:11:42;;;;;;;16.58;12.65;;;4.10;95.20;;;;;;5082049;28;20048;-55
2021/01/02 00:14:31;;;;;;;16.20;12.85;;;4.10;95.20;;;;;;5080257;28;20036;-55
2021/01/02 00:17:19;;;;;;;17.90;12.30;;;4.10;95.30;;;;;;5083756;28;20101;-55
2021/01/02 00:20:01;;;;;;;14.45;11.52;;;4.10;95.20;;;;;;5081197;28;20116;-55
2021/01/02 00:22:40;;;;;;;15.85;11.75;;;4.10;95.20;;;;;;5083184;28;20072;-55
2021/01/02 00:25:11;;;;;;;18.23;12.05;;;4.10;95.20;;;;;;5077393;28;20122;-55
2021/01/02 00:27:56;;;;;;;15.48;12.48;;;4.10;95.20;;;;;;5084720;28;20052;-56
2021/01/02 00:30:33;;;;;;;16.15;12.18;;;4.10;95.20;;;;;;5081272;28;20028;-55
2021/01/02 00:33:09;;;;;;;15.82;12.18;;;4.10;95.50;;;;;;5082367;28;20394;-55
2021/01/02 00:35:37;;;;;;;14.88;11.60;;;4.10;95.30;;;;;;5086814;28;20067;-55
2021/01/02 00:38:05;;;;;;;15.50;11.75;;;4.10;95.20;;;;;;5084284;28;20041;-55
2021/01/02 00:40:33;;;;;;;15.60;11.90;;;4.10;95.20;;;;;;5083089;28;20074;-55
2021/01/02 00:42:58;;;;;;;19.38;12.07;;;4.10;95.20;;;;;;5084313;28;20041;-55
2021/01/02 00:45:26;;;;;;;15.93;11.10;;;4.10;95.20;;;;;;5080729;28;20028;-55
2021/01/02 00:47:52;;;;;;;15.30;11.90;;;4.10;95.20;;;;;;5081808;28;20043;-55
2021/01/02 00:50:23;;;;;;;14.50;11.38;;;4.10;95.30;;;;;;5079813;28;20040;-55
2021/01/02 00:53:04;;;;;;;13.45;11.05;;;4.10;95.30;;;;;;5081497;28;20032;-55
2021/01/02 00:55:54;;;;;;;12.00;10.15;;;4.10;95.30;;;;;;5085273;28;20045;-56
2021/01/02 00:58:20;;;;;;;12.57;9.65;;;4.10;95.30;;;;;;5085846;28;20127;-55
2021/01/02 01:01:00;;;;;;;15.77;9.73;;;4.10;95.30;;;;;;5087504;28;20570;-55
2021/01/02 01:04:12;;;;;;;13.90;10.25;;;4.20;95.30;;;;;;5081075;28;20044;-55
2021/01/02 01:06:41;;;;;;;11.93;9.15;;;4.10;95.40;;;;;;5082910;28;20040;-55
2021/01/02 01:09:06;;;;;;;14.27;9.48;;;4.10;95.30;;;;;;5083595;28;20036;-55
2021/01/02 01:11:36;;;;;;;13.38;10.00;;;4.20;95.30;;;;;;5082383;28;20410;-55
2021/01/02 01:14:05;;;;;;;13.55;9.60;;;4.20;95.40;;;;;;5080285;28;20043;-55
2021/01/02 01:16:44;;;;;;;13.50;9.63;;;4.20;95.30;;;;;;5081047;28;20040;-55
2021/01/02 01:19:13;;;;;;;14.65;9.10;;;4.20;95.40;;;;;;5083708;28;20103;-55
2021/01/02 01:21:50;;;;;;;11.70;9.05;;;4.20;95.40;;;;;;5081361;28;20656;-56
2021/01/02 01:24:38;;;;;;;14.95;9.73;;;4.20;95.40;;;;;;5083029;28;20082;-55
2021/01/02 01:27:07;;;;;;;13.70;9.65;;;4.30;95.40;;;;;;5080705;28;20040;-55
2021/01/02 01:29:48;;;;;;;11.52;8.75;;;4.20;95.30;;;;;;5082268;28;20418;-55
2021/01/02 01:32:20;;;;;;;11.85;9.30;;;4.20;95.30;;;;;;5083187;28;20032;-55
2021/01/02 01:34:47;;;;;;;13.73;9.25;;;4.20;95.30;;;;;;5081922;28;20045;-55
2021/01/02 01:37:17;;;;;;;11.30;8.75;;;4.20;95.30;;;;;;5078871;28;20539;-55
2021/01/02 01:39:50;;;;;;;12.77;8.63;;;4.20;95.30;;;;;;5080306;28;20036;-55
2021/01/02 01:42:18;;;;;;;11.52;8.77;;;4.20;95.30;;;;;;5082737;28;20075;-55
2021/01/02 01:45:06;;;;;;;10.90;9.00;;;4.20;95.30;;;;;;5079168;28;20032;-55
2021/01/02 01:47:41;;;;;;;11.55;9.07;;;4.20;95.30;;;;;;5080385;28;20044;-55
2021/01/02 01:50:21;;;;;;;11.23;8.63;;;4.20;95.30;;;;;;5080676;28;20036;-55
2021/01/02 01:52:50;;;;;;;13.10;9.20;;;4.20;95.30;;;;;;5074291;28;20040;-55
2021/01/02 01:55:25;;;;;;;9.60;8.10;;;4.20;95.30;;;;;;5077240;28;20517;-55
2021/01/02 01:57:51;;;;;;;13.90;8.00;;;4.20;95.30;;;;;;5079142;28;20040;-55
2021/01/02 02:00:18;;;;;;;11.00;8.70;;;4.30;95.30;;;;;;5080323;28;20283;-55
2021/01/02 02:02:46;;;;;;;12.27;8.95;;;4.30;95.30;;;;;;5079664;28;20082;-55
2021/01/02 02:05:33;;;;;;;12.88;9.40;;;4.20;95.40;;;;;;5079297;28;20048;-55
2021/01/02 02:08:02;;;;;;;12.15;8.90;;;4.30;95.40;;;;;;5080365;28;20129;-55
2021/01/02 02:10:35;;;;;;;14.45;10.65;;;4.30;95.40;;;;;;5080335;28;20085;-55
2021/01/02 02:13:19;;;;;;;13.70;9.05;;;4.30;95.50;;;;;;5078393;28;20108;-55
2021/01/02 02:15:55;;;;;;;11.93;8.93;;;4.30;95.40;;;;;;5076782;28;20036;-55
2021/01/02 02:18:28;;;;;;;13.02;9.55;;;4.30;95.50;;;;;;5084536;28;20596;-55
2021/01/02 02:21:00;;;;;;;13.07;9.15;;;4.20;95.40;;;;;;5086075;28;20036;-55
2021/01/02 02:23:51;;;;;;;12.57;9.20;;;4.30;95.50;;;;;;5078161;28;20392;-56
2021/01/02 02:26:23;;;;;;;13.30;9.52;;;4.20;95.40;;;;;;5075677;28;20044;-56
2021/01/02 02:29:12;;;;;;;14.23;9.90;;;4.20;95.40;;;;;;5080535;28;20080;-55
2021/01/02 02:31:42;;;;;;;12.35;9.05;;;4.20;95.40;;;;;;5078874;28;20081;-55
2021/01/02 02:34:08;;;;;;;13.95;9.75;;;4.20;95.50;;;;;;5078058;28;20037;-55
2021/01/02 02:36:34;;;;;;;15.93;10.45;;;4.20;95.50;;;;;;5077547;28;20115;-55
2021/01/02 02:39:20;;;;;;;12.73;10.13;;;4.20;95.40;;;;;;5079015;28;20028;-55
2021/01/02 02:41:51;;;;;;;14.40;10.00;;;4.20;95.50;;;;;;5079871;28;20086;-55
2021/01/02 02:44:21;;;;;;;14.50;9.50;;;4.20;95.60;;;;;;5079233;28;20041;-55
2021/01/02 02:46:47;;;;;;;14.95;9.95;;;4.20;95.50;;;;;;5081902;28;20047;-55
2021/01/02 02:49:18;;;;;;;16.00;10.38;;;4.20;95.60;;;;;;5081124;28;20108;-55
2021/01/02 02:51:51;;;;;;;17.10;10.68;;;4.20;95.60;;;;;;5079889;28;20040;-55
2021/01/02 02:54:18;;;;;;;14.30;10.30;;;4.20;95.60;;;;;;5085276;28;20552;-55
2021/01/02 02:56:44;;;;;;;15.30;10.80;;;4.20;95.50;;;;;;5081285;28;20093;-55
2021/01/02 02:59:11;;;;;;;14.32;10.32;;;4.20;95.60;;;;;;5076702;28;20474;-55
2021/01/02 03:01:37;;;;;;;15.63;9.82;;;4.10;95.50;;;;;;5077674;28;20044;-55
2021/01/02 03:04:03;;;;;;;13.15;10.27;;;4.10;95.50;;;;;;5076876;28;20050;-55
2021/01/02 03:06:33;;;;;;;12.63;9.30;;;4.10;95.40;;;;;;5081559;28;20048;-55
2021/01/02 03:08:59;;;;;;;12.80;10.10;;;4.10;95.40;;;;;;5081951;28;20034;-55
2021/01/02 03:11:25;;;;;;;15.15;10.00;;;4.00;95.30;;;;;;5078933;28;20040;-55
2021/01/02 03:13:54;;;;;;;16.60;11.68;;;4.00;95.40;;;;;;5078436;28;20040;-55
2021/01/02 03:16:23;;;;;;;17.05;10.43;;;4.00;95.40;;;;;;5082441;28;20194;-55
2021/01/02 03:18:49;;;;;;;15.05;11.32;;;4.00;95.40;;;;;;5079518;28;20066;-55
2021/01/02 03:21:15;;;;;;;16.35;11.23;;;3.90;95.40;;;;;;5082131;28;20526;-55
2021/01/02 03:23:46;;;;;;;16.30;11.32;;;3.90;95.40;;;;;;5080940;28;20040;-55
2021/01/02 03:26:16;;;;;;;14.18;10.35;;;3.90;95.50;;;;;;5079660;28;20076;-55
2021/01/02 03:28:54;;;;;;;18.63;11.55;;;3.90;95.50;;;;;;5081416;28;20389;-55
2021/01/02 03:31:20;;;;;;;18.23;11.25;;;3.90;95.50;;;;;;5082925;28;20085;-55
2021/01/02 03:33:46;;;;;;;17.27;12.73;;;3.90;95.60;;;;;;5081086;28;20036;-55
2021/01/02 03:36:12;;;;;;;14.02;9.95;;;3.90;95.60;;;;;;5078229;28;20051;-55
2021/01/02 03:38:39;;;;;;;15.07;10.77;;;3.90;95.50;;;;;;5081432;28;20037;-55
2021/01/02 03:41:05;;;;;;;17.20;11.50;;;3.90;95.60;;;;;;5076298;28;20131;-55
2021/01/02 03:43:30;;;;;;;16.25;11.27;;;3.90;95.50;;;;;;5075591;28;20116;-56
2021/01/02 03:45:56;;;;;;;17.08;10.98;;;3.90;95.50;;;;;;5082317;28;20040;-55
2021/01/02 03:48:22;;;;;;;18.73;10.02;;;3.90;95.50;;;;;;5082827;28;20613;-55
2021/01/02 03:50:48;;;;;;;11.55;9.30;;;3.80;95.40;;;;;;5081551;28;20119;-55
2021/01/02 03:53:14;;;;;;;17.85;11.07;;;3.80;95.40;;;;;;5085930;28;20070;-55
2021/01/02 03:55:42;;;;;;;22.88;12.55;;;3.80;95.40;;;;;;5080409;28;20066;-55
2021/01/02 03:58:08;;;;;;;18.35;11.77;;;3.80;95.40;;;;;;5080439;28;20044;-55
2021/01/02 04:00:34;;;;;;;18.65;12.07;;;3.70;95.40;;;;;;5084661;28;20406;-55
2021/01/02 04:03:00;;;;;;;17.15;11.45;;;3.80;95.40;;;;;;5086716;28;20048;-55
2021/01/02 04:05:26;;;;;;;13.27;10.05;;;3.70;95.40;;;;;;5080546;28;20134;-55
2021/01/02 04:07:53;;;;;;;16.45;10.90;;;3.70;95.40;;;;;;5081091;28;20066;-55
2021/01/02 04:10:18;;;;;;;18.40;11.30;;;3.80;95.40;;;;;;5085747;28;20056;-55
2021/01/02 04:12:44;;;;;;;20.05;12.70;;;3.70;95.40;;;;;;5082651;28;20639;-55
2021/01/02 04:15:10;;;;;;;20.40;12.52;;;3.70;95.50;;;;;;5080508;28;20088;-55
2021/01/02 04:17:36;;;;;;;23.45;14.57;;;3.80;95.80;;;;;;5084112;28;20136;-55
2021/01/02 04:20:04;;;;;;;23.55;14.10;;;3.80;95.90;;;;;;5086592;28;20123;-55
2021/01/02 04:22:32;;;;;;;23.27;13.43;;;3.80;96.00;;;;;;5077309;28;20398;-55
2021/01/02 04:24:59;;;;;;;25.15;14.10;;;3.80;96.00;;;;;;5081041;28;20035;-55
2021/01/02 04:27:24;;;;;;;24.45;15.40;;;3.80;96.10;;;;;;5085149;28;20093;-55
2021/01/02 04:29:50;;;;;;;24.70;13.80;;;3.80;96.10;;;;;;5082697;28;20040;-55
2021/01/02 04:32:16;;;;;;;20.70;13.18;;;3.90;96.10;;;;;;5085954;28;20518;-56
2021/01/02 04:34:41;;;;;;;23.73;14.25;;;3.90;96.10;;;;;;5079582;28;20055;-55
2021/01/02 04:37:07;;;;;;;25.17;15.30;;;3.90;96.10;;;;;;5081945;28;20037;-55
2021/01/02 04:39:33;;;;;;;26.20;15.20;;;3.90;96.10;;;;;;5077672;28;20097;-55
2021/01/02 04:41:59;;;;;;;23.60;14.55;;;3.90;96.10;;;;;;5081772;28;20033;-55
2021/01/02 04:44:26;;;;;;;27.55;15.45;;;3.90;96.20;;;;;;5083488;28;20036;-55
2021/01/02 04:46:54;;;;;;;22.00;14.43;;;3.90;96.20;;;;;;5079786;28;20047;-55
2021/01/02 04:49:20;;;;;;;26.20;14.73;;;4.00;96.20;;;;;;5081865;28;20040;-55
2021/01/02 04:51:46;;;;;;;18.50;13.05;;;4.00;96.50;;;;;;5083777;28;21085;-55
2021/01/02 04:54:13;;;;;;;20.77;13.18;;;4.00;96.20;;;;;;5083336;28;20113;-56
2021/01/02 04:56:39;;;;;;;24.40;14.52;;;4.00;96.30;;;;;;5085131;28;20043;-55
2021/01/02 04:59:10;;;;;;;26.60;15.25;;;4.00;96.30;;;;;;5081667;28;20542;-56
2021/01/02 05:01:37;;;;;;;23.83;14.45;;;4.00;96.30;;;;;;5079909;28;20033;-55
2021/01/02 05:04:03;;;;;;;25.70;15.45;;;4.10;96.30;;;;;;5079993;28;20556;-55
2021/01/02 05:06:29;;;;;;;25.25;14.65;;;4.00;96.20;;;;;;5085375;28;20036;-56
2021/01/02 05:08:55;;;;;;;27.48;14.95;;;4.10;96.30;;;;;;5079739;28;20094;-55
2021/01/02 05:11:21;;;;;;;24.85;14.75;;;4.10;96.30;;;;;;5086619;28;20040;-55
2021/01/02 05:13:47;;;;;;;25.48;15.48;;;4.10;96.30;;;;;;5078601;28;20116;-55
2021/01/02 05:16:45;;;;;;;23.75;14.60;;;4.10;96.30;;;;;;5083929;28;20123;-55
2021/01/02 05:19:14;;;;;;;21.90;14.65;;;4.10;96.30;;;;;;5083763;28;20055;-55
2021/01/02 05:21:45;;;;;;;25.25;15.27;;;4.10;96.30;;;;;;5081524;28;20452;-55
2021/01/02 05:24:15;;;;;;;26.13;15.88;;;4.10;96.30;;;;;;5077954;28;20398;-55
2021/01/02 05:27:05;;;;;;;30.75;16.08;;;4.10;96.30;;;;;;5087451;28;20043;-55
2021/01/02 05:29:31;;;;;;;27.92;15.88;;;4.10;96.30;;;;;;5080962;28;20174;-55
2021/01/02 05:32:01;;;;;;;23.50;14.18;;;4.10;96.30;;;;;;5078676;28;20146;-56
2021/01/02 05:34:32;;;;;;;32.30;17.05;;;4.10;96.30;;;;;;5078450;28;20041;-55
2021/01/02 05:37:05;;;;;;;32.42;16.05;;;4.10;96.30;;;;;;5080590;28;20114;-55
2021/01/02 05:39:40;;;;;;;30.42;15.73;;;4.10;96.30;;;;;;5080398;28;20097;-56
2021/01/02 05:42:06;;;;;;;25.85;15.73;;;4.10;96.30;;;;;;5077833;28;20041;-55
2021/01/02 05:44:34;;;;;;;30.95;15.82;;;4.10;96.20;;;;;;5081841;28;20474;-55
2021/01/02 05:47:01;;;;;;;24.85;15.23;;;4.10;96.30;;;;;;5078960;28;20049;-55
2021/01/02 05:49:35;;;;;;;24.95;15.93;;;4.20;96.20;;;;;;5077015;28;20044;-55
2021/01/02 05:52:05;;;;;;;25.13;14.77;;;4.20;96.20;;;;;;5079559;28;20508;-55
2021/01/02 05:54:33;;;;;;;31.58;16.83;;;4.20;96.20;;;;;;5079644;28;20039;-55
2021/01/02 05:57:01;;;;;;;30.85;16.77;;;4.20;96.20;;;;;;5083664;28;20032;-56
2021/01/02 05:59:38;;;;;;;30.25;16.92;;;4.20;96.20;;;;;;5082639;28;20451;-55
2021/01/02 06:02:23;;;;;;;35.47;17.77;;;4.20;96.20;;;;;;5080144;28;20032;-55
2021/01/02 06:04:57;;;;;;;32.25;17.40;;;4.20;96.20;;;;;;5083677;28;20394;-55
2021/01/02 06:07:23;;;;;;;40.35;19.38;;;4.20;96.20;;;;;;5080122;28;20044;-55
2021/01/02 06:09:50;;;;;;;33.58;18.27;;;4.20;96.20;;;;;;5080272;28;20040;-55
2021/01/02 06:12:30;;;;;;;32.25;18.17;;;4.20;96.50;;;;;;5079805;28;20184;-55
2021/01/02 06:15:05;;;;;;;42.03;19.25;;;4.20;96.20;;;;;;5078602;28;20040;-55
2021/01/02 06:17:36;;;;;;;36.53;17.33;;;4.10;96.20;;;;;;5079220;28;20390;-55
2021/01/02 06:20:11;;;;;;;30.63;17.63;;;4.20;96.20;;;;;;5078117;28;20434;-55
2021/01/02 06:22:41;;;;;;;27.90;16.38;;;4.20;96.20;;;;;;5080024;28;20040;-55
2021/01/02 06:25:10;;;;;;;37.67;18.65;;;4.20;96.20;;;;;;5079979;28;20101;-56
2021/01/02 06:27:40;;;;;;;35.00;17.67;;;4.10;96.20;;;;;;5079777;28;20545;-55
2021/01/02 06:30:06;;;;;;;37.17;18.80;;;4.20;96.20;;;;;;5077419;28;20053;-55
2021/01/02 06:32:32;;;;;;;32.50;17.35;;;4.20;96.20;;;;;;5079366;28;20043;-55
2021/01/02 06:35:17;;;;;;;39.72;18.98;;;4.20;96.20;;;;;;5078312;28;20097;-55
2021/01/02 06:37:49;;;;;;;45.10;19.33;;;4.20;96.20;;;;;;5076980;28;20111;-55
2021/01/02 06:40:21;;;;;;;36.08;18.70;;;4.20;96.20;;;;;;5079727;28;20486;-55
2021/01/02 06:42:53;;;;;;;38.88;17.85;;;4.20;96.20;;;;;;5078542;28;20036;-56
2021/01/02 06:45:37;;;;;;;41.33;19.67;;;4.20;96.20;;;;;;5079823;28;20043;-55
2021/01/02 06:48:20;;;;;;;35.35;17.75;;;4.30;96.20;;;;;;5081081;28;20071;-55
2021/01/02 06:50:47;;;;;;;41.15;18.40;;;4.10;96.20;;;;;;5080940;28;20067;-55
2021/01/02 06:53:32;;;;;;;38.22;19.90;;;4.20;96.20;;;;;;5080870;28;20032;-55
2021/01/02 06:56:05;;;;;;;49.15;19.95;;;4.10;96.20;;;;;;5077702;28;20036;-56
2021/01/02 06:58:48;;;;;;;38.05;17.05;;;4.20;96.20;;;;;;5075517;28;20589;-55
2021/01/02 07:01:16;;;;;;;51.10;18.63;;;4.20;96.20;;;;;;5078976;28;20036;-55
2021/01/02 07:03:48;;;;;;;47.90;19.67;;;4.10;96.20;;;;;;5080251;28;20110;-55
2021/01/02 07:06:23;;;;;;;43.97;19.52;;;4.10;96.20;;;;;;5081613;28;20040;-55
2021/01/02 07:08:58;;;;;;;44.72;19.33;;;4.10;96.20;;;;;;5078758;28;20090;-55
2021/01/02 07:11:38;;;;;;;36.63;17.13;;;4.10;96.30;;;;;;5076633;28;20049;-56
2021/01/02 07:14:09;;;;;;;48.35;20.00;;;4.10;96.30;;;;;;5082346;28;20035;-56
2021/01/02 07:16:53;;;;;;;39.88;18.70;;;4.10;96.30;;;;;;5082425;28;20036;-56
2021/01/02 07:19:25;;;;;;;39.80;17.85;;;4.10;96.30;;;;;;5075499;28;20535;-55
2021/01/02 07:22:07;;;;;;;49.63;20.25;;;4.10;96.30;;;;;;5078656;28;20040;-56
2021/01/02 07:24:43;;;;;;;53.00;21.63;;;4.10;96.30;;;;;;5072011;28;20105;-55
2021/01/02 07:27:10;;;;;;;;;;;4.10;96.30;;;;;;5078001;28;20526;-55
2021/01/02 07:29:47;;;;;;;46.50;20.70;;;4.10;96.40;;;;;;5078152;28;19943;-55
2021/01/02 07:32:18;;;;;;;39.22;18.23;;;4.10;96.40;;;;;;5077995;28;20115;-56
2021/01/02 07:34:55;;;;;;;48.47;20.98;;;4.10;96.40;;;;;;5073683;28;20127;-56
2021/01/02 07:37:23;;;;;;;46.75;20.95;;;4.10;96.40;;;;;;5083226;28;20153;-55
2021/01/02 07:40:09;;;;;;;43.88;20.55;;;4.20;96.40;;;;;;5081813;28;20040;-55
2021/01/02 07:42:40;;;;;;;47.95;20.23;;;4.10;96.40;;;;;;5079650;28;20039;-55
2021/01/02 07:45:11;;;;;;;46.22;19.73;;;4.10;96.40;;;;;;5079158;28;20124;-55
2021/01/02 07:47:38;;;;;;;44.78;19.40;;;4.10;96.40;;;;;;5082684;28;20036;-55
2021/01/02 07:50:12;;;;;;;47.38;21.23;;;4.10;96.40;;;;;;5074928;28;20047;-56
2021/01/02 07:52:47;;;;;;;48.78;21.38;;;4.10;96.40;;;;;;5079104;28;20040;-56
2021/01/02 07:55:13;;;;;;;49.40;19.40;;;4.10;96.40;;;;;;5083997;28;20102;-56
2021/01/02 07:57:39;;;;;;;50.10;20.30;;;4.10;96.40;;;;;;5082470;28;20035;-56
2021/01/02 08:00:10;;;;;;;52.83;20.48;;;4.10;96.30;;;;;;5079879;28;20111;-56
2021/01/02 08:02:40;;;;;;;51.38;20.25;;;4.10;96.30;;;;;;5082724;28;20083;-56
2021/01/02 08:05:11;;;;;;;55.50;21.80;;;4.20;96.40;;;;;;5080682;28;20720;-56
2021/01/02 08:07:38;;;;;;;79.68;24.35;;;4.10;96.40;;;;;;5079934;28;20040;-54
2021/01/02 08:10:08;;;;;;;60.97;20.80;;;4.10;96.40;;;;;;5084882;28;20032;-55
2021/01/02 08:12:35;;;;;;;72.05;21.95;;;4.10;96.30;;;;;;5080096;28;20101;-54
2021/01/02 08:15:01;;;;;;;67.03;20.83;;;4.10;96.40;;;;;;5076965;28;20062;-55
2021/01/02 08:17:38;;;;;;;51.38;20.70;;;4.10;96.40;;;;;;5081117;28;20499;-55
2021/01/02 08:20:04;;;;;;;64.07;21.92;;;4.10;96.40;;;;;;5082675;28;20483;-55
2021/01/02 08:22:31;;;;;;;61.05;20.25;;;4.10;96.30;;;;;;5081975;28;20064;-52
2021/01/02 08:25:02;;;;;;;53.65;19.20;;;4.10;96.30;;;;;;5074227;28;20117;-56
2021/01/02 08:27:33;;;;;;;49.70;19.63;;;4.10;96.30;;;;;;5080172;28;20036;-56
2021/01/02 08:30:06;;;;;;;55.67;19.27;;;4.10;96.30;;;;;;5079226;28;20102;-52
2021/01/02 08:32:57;;;;;;;69.13;21.30;;;4.10;96.30;;;;;;5088820;28;20028;-63
2021/01/02 08:35:29;;;;;;;63.05;21.13;;;4.10;96.30;;;;;;5081666;28;20490;-62
2021/01/02 08:38:04;;;;;;;71.25;20.83;;;4.10;96.40;;;;;;5085997;28;20052;-60
2021/01/02 08:40:34;;;;;;;69.77;22.97;;;4.10;96.40;;;;;;5083952;28;20044;-60
2021/01/02 08:43:00;;;;;;;48.92;19.27;;;4.10;96.70;;;;;;5087754;28;20036;-58
2021/01/02 08:45:39;;;;;;;49.58;20.02;;;4.10;96.30;;;;;;5083918;28;20106;-59
2021/01/02 08:48:19;;;;;;;41.03;18.63;;;4.10;96.40;;;;;;5084830;28;20028;-58
2021/01/02 08:50:45;;;;;;;49.03;20.08;;;4.10;96.40;;;;;;5086006;28;20032;-58
2021/01/02 08:53:27;;;;;;;51.00;20.42;;;4.20;96.40;;;;;;5081219;28;20043;-61
2021/01/02 08:55:53;;;;;;;50.53;20.55;;;4.20;96.40;;;;;;5088637;28;20498;-58
2021/01/02 08:58:32;;;;;;;59.80;23.23;;;4.20;96.40;;;;;;5086597;28;20066;-58
2021/01/02 09:04:28;;;;;;;47.17;21.67;;;4.20;96.30;;;;;;5088292;28;20036;-50
2021/01/02 09:07:01;;;;;;;48.38;21.42;;;4.20;96.30;;;;;;5080609;28;20398;-57
2021/01/02 09:09:27;;;;;;;52.17;23.50;;;4.30;96.30;;;;;;5087404;28;20092;-57
2021/01/02 09:11:54;;;;;;;56.13;23.33;;;4.30;96.30;;;;;;5084739;28;20045;-57
2021/01/02 09:14:20;;;;;;;49.15;22.08;;;4.30;96.30;;;;;;5087612;28;20070;-57
2021/01/02 09:17:08;;;;;;;48.92;21.17;;;4.30;96.30;;;;;;5087569;28;20053;-57
2021/01/02 09:19:33;;;;;;;50.45;21.50;;;4.40;96.20;;;;;;5083946;28;20556;-57
2021/01/02 09:21:59;;;;;;;46.03;20.60;;;4.50;96.20;;;;;;5085841;28;20060;-57
2021/01/02 09:24:25;;;;;;;42.17;19.58;;;4.40;96.20;;;;;;5085534;28;20065;-56
2021/01/02 09:26:50;;;;;;;60.25;23.13;;;4.40;96.10;;;;;;5082542;28;20037;-56
2021/01/02 09:29:17;;;;;;;46.05;21.02;;;4.40;96.10;;;;;;5087323;28;20048;-56
2021/01/02 09:31:44;;;;;;;45.75;21.65;;;4.50;96.10;;;;;;5089006;28;20115;-56
2021/01/02 09:34:11;;;;;;;47.70;21.30;;;4.40;96.10;;;;;;5085071;28;20098;-56
2021/01/02 09:36:38;;;;;;;54.08;22.73;;;4.40;96.00;;;;;;5086620;28;20040;-56
2021/01/02 09:39:05;;;;;;;54.38;21.88;;;4.40;96.00;;;;;;5081995;28;20494;-56
2021/01/02 09:41:31;;;;;;;49.28;22.15;;;4.50;96.10;;;;;;5080776;28;20046;-56
2021/01/02 09:43:58;;;;;;;51.25;22.67;;;4.40;96.10;;;;;;5082723;28;20043;-56
2021/01/02 09:46:27;;;;;;;51.95;23.48;;;4.40;96.00;;;;;;5085390;28;20463;-56
2021/01/02 09:48:54;;;;;;;50.40;22.98;;;4.50;96.10;;;;;;5082638;28;20494;-56
2021/01/02 09:51:23;;;;;;;49.72;22.05;;;4.50;96.10;;;;;;5082411;28;20042;-56
2021/01/02 09:53:49;;;;;;;44.20;22.23;;;4.50;96.20;;;;;;5085144;28;20466;-56
2021/01/02 09:56:14;;;;;;;52.45;22.52;;;4.50;96.10;;;;;;5084198;28;20372;-56
2021/01/02 09:58:42;;;;;;;51.15;21.90;;;4.50;96.10;;;;;;5078174;28;20046;-56
2021/01/02 10:01:08;;;;;;;49.92;23.02;;;4.50;96.00;;;;;;5085052;28;20107;-56
2021/01/02 10:03:33;;;;;;;54.45;23.23;;;4.50;96.10;;;;;;5081672;28;20130;-56
2021/01/02 10:05:59;;;;;;;50.92;22.55;;;4.50;96.10;;;;;;5082455;28;20836;-56
2021/01/02 10:08:27;;;;;;;50.70;22.08;;;4.60;96.10;;;;;;5087593;28;20136;-56
2021/01/02 10:10:53;;;;;;;46.30;21.10;;;4.50;96.10;;;;;;5087537;28;20111;-56
2021/01/02 10:13:19;;;;;;;47.70;22.15;;;4.60;96.10;;;;;;5081931;28;20048;-56
2021/01/02 10:15:46;;;;;;;47.28;22.25;;;4.60;96.10;;;;;;5076358;28;20047;-56
2021/01/02 10:18:12;;;;;;;51.00;22.52;;;4.60;96.00;;;;;;5081759;28;20394;-56
2021/01/02 10:20:38;;;;;;;47.75;22.00;;;4.60;96.10;;;;;;5084510;28;20039;-56
2021/01/02 10:23:04;;;;;;;44.50;21.27;;;4.60;96.10;;;;;;5081428;28;20036;-56
2021/01/02 10:25:29;;;;;;;44.05;21.92;;;4.60;96.10;;;;;;5083979;28;20051;-56
2021/01/02 10:27:55;;;;;;;48.60;21.50;;;4.60;96.00;;;;;;5083047;28;20036;-56
2021/01/02 10:30:21;;;;;;;42.25;21.27;;;4.60;96.00;;;;;;5085292;28;20063;-56
2021/01/02 10:32:46;;;;;;;42.60;20.15;;;4.60;96.00;;;;;;5084708;28;20116;-56
2021/01/02 10:35:14;;;;;;;43.78;22.15;;;4.70;96.00;;;;;;5082424;28;20043;-56
2021/01/02 10:37:40;;;;;;;38.97;19.65;;;4.70;96.00;;;;;;5085136;28;20074;-56
2021/01/02 10:40:08;;;;;;;42.90;21.30;;;4.60;95.90;;;;;;5086892;28;21980;-56
2021/01/02 10:42:35;;;;;;;33.20;17.65;;;4.70;95.90;;;;;;5083974;28;20032;-55
2021/01/02 10:45:03;;;;;;;38.78;19.02;;;4.70;95.80;;;;;;5084024;28;20032;-54
2021/01/02 10:47:30;;;;;;;27.15;15.20;;;4.70;95.80;;;;;;5083208;28;20040;-55
2021/01/02 10:49:56;;;;;;;30.98;16.45;;;4.80;95.80;;;;;;5079525;28;20335;-55
2021/01/02 10:52:24;;;;;;;33.70;16.15;;;4.80;95.60;;;;;;5035974;22;20129;-55
2021/01/02 10:54:51;;;;;;;29.88;15.23;;;4.80;95.60;;;;;;5002828;28;20049;-55
2021/01/02 10:57:18;;;;;;;32.08;16.75;;;4.80;95.40;;;;;;5000621;28;20395;-55
2021/01/02 10:59:46;;;;;;;36.55;17.20;;;4.80;95.40;;;;;;5001331;28;20038;-55
2021/01/02 11:02:12;;;;;;;32.63;17.25;;;4.90;95.50;;;;;;5002182;28;20471;-55
2021/01/02 11:04:38;;;;;;;28.30;15.73;;;4.90;95.60;;;;;;5008876;28;20037;-55
2021/01/02 11:07:05;;;;;;;31.42;16.48;;;4.90;95.60;;;;;;5007157;28;20038;-55
2021/01/02 11:09:31;;;;;;;28.40;15.63;;;4.80;95.50;;;;;;5006715;28;20403;-55
2021/01/02 11:11:57;;;;;;;28.48;15.00;;;4.90;95.40;;;;;;5010052;28;20037;-54
2021/01/02 11:14:23;;;;;;;30.60;15.55;;;4.80;95.30;;;;;;5007133;28;20049;-54
2021/01/02 11:16:49;;;;;;;26.85;15.95;;;4.80;95.40;;;;;;5005024;28;20124;-55
2021/01/02 11:19:17;;;;;;;26.35;14.75;;;4.80;95.30;;;;;;5012644;28;20495;-55
2021/01/02 11:21:45;;;;;;;33.10;15.90;;;4.80;95.30;;;;;;5003012;28;20037;-53
2021/01/02 11:24:12;;;;;;;27.13;15.68;;;4.80;95.30;;;;;;5005009;28;20037;-55
2021/01/02 11:26:42;;;;;;;32.25;17.48;;;4.80;95.30;;;;;;5004434;28;20042;-55
2021/01/02 11:29:07;;;;;;;33.35;16.85;;;4.80;95.30;;;;;;4992618;28;20404;-55
2021/01/02 11:31:35;;;;;;;30.73;16.23;;;4.80;95.40;;;;;;5012644;28;20042;-55
2021/01/02 11:34:01;;;;;;;24.65;15.32;;;4.80;95.50;;;;;;5002394;28;20042;-55
2021/01/02 11:36:27;;;;;;;29.60;16.00;;;4.80;95.40;;;;;;5007838;28;20041;-55
2021/01/02 11:38:53;;;;;;;35.30;16.42;;;4.80;95.30;;;;;;5010847;28;20042;-55
2021/01/02 11:41:29;;;;;;;31.27;17.58;;;4.80;95.40;;;;;;5004410;28;20046;-55
2021/01/02 11:43:55;;;;;;;29.23;15.98;;;4.90;95.40;;;;;;5004071;28;20609;-55
2021/01/02 11:46:33;;;;;;;32.50;16.52;;;4.90;95.40;;;;;;5011096;28;20038;-55
2021/01/02 11:48:58;;;;;;;31.17;15.60;;;4.90;95.40;;;;;;5012296;28;20078;-55
2021/01/02 11:51:24;;;;;;;35.25;17.73;;;4.90;95.30;;;;;;5006239;28;20062;-55
2021/01/02 11:53:50;;;;;;;29.02;16.13;;;4.90;95.30;;;;;;5007567;28;20026;-55
2021/01/02 11:56:22;;;;;;;31.55;17.27;;;5.00;95.30;;;;;;5007852;28;20042;-55
2021/01/02 11:58:52;;;;;;;27.58;14.43;;;5.00;95.40;;;;;;5012560;28;20042;-55
2021/01/02 12:01:18;;;;;;;24.88;14.77;;;5.00;95.10;;;;;;5009310;28;20038;-55
2021/01/02 12:03:45;;;;;;;29.67;16.58;;;5.00;95.00;;;;;;5006660;28;20487;-55
2021/01/02 12:06:11;;;;;;;28.02;16.58;;;5.00;95.00;;;;;;5007963;28;20112;-55
2021/01/02 12:08:37;;;;;;;28.58;15.70;;;5.00;95.10;;;;;;5011332;28;20050;-55
2021/01/02 12:11:04;;;;;;;27.05;15.50;;;5.00;95.00;;;;;;5010328;28;20392;-54
2021/01/02 12:13:29;;;;;;;30.25;16.63;;;4.90;94.90;;;;;;5008662;28;20038;-55
2021/01/02 12:15:55;;;;;;;29.67;15.73;;;4.90;94.90;;;;;;5011673;28;20038;-55
2021/01/02 12:18:22;;;;;;;27.17;16.15;;;4.90;95.10;;;;;;5010937;28;20066;-55
2021/01/02 12:20:48;;;;;;;27.15;15.73;;;4.90;95.10;;;;;;5011791;28;20057;-55
2021/01/02 12:23:14;;;;;;;30.33;16.73;;;4.90;95.10;;;;;;5008426;28;20042;-55
2021/01/02 12:25:39;;;;;;;28.70;16.98;;;5.00;95.10;;;;;;5011381;28;20057;-55
2021/01/02 12:28:05;;;;;;;33.15;17.50;;;4.90;95.10;;;;;;5008282;28;20141;-55
2021/01/02 12:30:31;;;;;;;31.25;16.73;;;4.90;95.10;;;;;;5014455;28;20096;-55
2021/01/02 12:32:57;;;;;;;33.42;17.25;;;4.90;95.10;;;;;;5016953;28;20499;-55
2021/01/02 12:35:24;;;;;;;31.88;17.77;;;4.90;95.10;;;;;;5011015;28;20045;-55
2021/01/02 12:37:50;;;;;;;30.42;17.33;;;4.90;95.10;;;;;;5009191;28;20451;-55
2021/01/02 12:40:17;;;;;;;32.17;17.08;;;4.90;95.20;;;;;;5011536;28;20138;-55
2021/01/02 12:42:42;;;;;;;30.98;16.52;;;4.90;95.40;;;;;;5012087;28;20115;-55
2021/01/02 12:45:09;;;;;;;34.33;18.55;;;4.90;95.10;;;;;;5006448;28;20133;-55
2021/01/02 12:47:35;;;;;;;32.45;18.48;;;4.80;95.00;;;;;;5010368;28;20065;-55
2021/01/02 12:50:01;;;;;;;31.98;17.48;;;4.80;95.10;;;;;;5010684;28;20514;-55
2021/01/02 12:52:29;;;;;;;30.98;17.23;;;4.80;95.20;;;;;;4991927;28;20417;-55
2021/01/02 12:54:56;;;;;;;32.08;17.20;;;4.90;95.30;;;;;;5006679;28;20038;-55
2021/01/02 12:57:23;;;;;;;33.58;17.45;;;4.80;95.40;;;;;;5008116;28;20040;-56